Time;durP1;ratioP1;P1;durP2;ratioP2;P2;SDS_P1;SDS_P2;PMS_P1;PMS_P2;Temp;Humidity;BMP_temperature;BMP_pressure;BME280_temperature;BME280_humidity;BME280_pressure;Samples;Min_cycle;Max_cycle;Signal;HPM_P1;HPM_P2
2022/06/22 07:08:45;;;;;;;119.28;25.77;;;;;;;21.01;70.59;96114.09;2107509;27;20567;-59
2022/06/22 07:09:50;;;;;;;129.27;34.50;;;;;;;20.47;69.27;96113.84;2107363;28;20203;-59
2022/06/22 07:11:05;;;;;;;130.23;42.47;;;;;;;20.22;71.39;96113.44;2105564;28;20210;-59
2022/06/22 07:12:12;;;;;;;133.95;44.58;;;;;;;20.25;71.39;96107.03;2095638;27;20761;-60
2022/06/22 07:13:25;;;;;;;128.35;41.65;;;;;;;20.28;72.65;96102.28;2105784;28;20190;-60
2022/06/22 07:14:38;;;;;;;147.57;70.50;;;;;;;20.50;71.93;96103.75;2101042;28;20187;-60
2022/06/22 07:15:43;;;;;;;137.73;55.65;;;;;;;20.68;71.56;96105.66;2090935;28;20192;-60
2022/06/22 07:41:22;;;;;;;120.38;24.73;;;;;;;21.96;66.27;96084.59;2081799;28;21075;-59
2022/06/22 07:42:24;;;;;;;139.45;57.63;;;;;;;22.06;65.70;96082.66;2068468;28;20231;-59
2022/06/22 07:43:25;;;;;;;139.38;65.05;;;;;;;22.11;65.72;96087.53;2076807;28;20205;-59
2022/06/22 07:44:31;;;;;;;141.05;61.38;;;;;;;22.23;65.34;96091.59;2074762;28;20729;-59
2022/06/22 07:45:34;;;;;;;134.82;41.17;;;;;;;22.35;64.60;96093.03;2070614;28;20205;-61
2022/06/22 07:47:08;;;;;;;134.38;39.63;;;;;;;22.57;63.10;96085.53;2070580;28;20661;-61
2022/06/22 07:48:19;;;;;;;130.38;38.63;;;;;;;22.64;63.07;96089.25;2069832;28;20233;-62
2022/06/22 07:49:27;;;;;;;126.70;42.30;;;;;;;22.73;62.22;96084.81;2070536;28;20197;-61
2022/06/22 07:50:33;;;;;;;139.63;51.70;;;;;;;22.82;61.47;96091.00;2069067;28;20194;-60
2022/06/22 07:51:37;;;;;;;143.00;59.05;;;;;;;22.81;62.36;96097.31;2070058;28;20206;-61
2022/06/22 07:53:03;;;;;;;141.63;45.40;;;;;;;22.87;61.85;96094.03;2065518;28;20225;-61
2022/06/22 07:54:16;;;;;;;141.82;61.50;;;;;;;22.85;61.32;96096.00;2077579;28;20785;-60
2022/06/22 07:55:55;;;;;;;133.88;46.13;;;;;;;22.91;61.18;96105.19;2070307;28;20198;-60
2022/06/22 08:42:32;;;;;;;116.03;16.48;;;;;;;21.78;64.21;96124.44;2112790;27;20578;-60
2022/06/22 08:44:10;;;;;;;120.60;20.17;;;;;;;21.80;65.35;96133.09;2125094;27;20193;-60
2022/06/22 08:45:18;;;;;;;116.57;20.08;;;;;;;21.82;65.62;96128.47;2090710;28;20203;-60
2022/06/22 08:46:38;;;;;;;125.82;31.98;;;;;;;21.79;66.27;96134.09;2105588;28;20206;-61
2022/06/22 08:48:09;;;;;;;134.75;34.15;;;;;;;21.77;66.04;96136.06;2106278;27;20221;-61
2022/06/22 09:11:49;;;;;;;134.50;39.72;;;;;;;21.38;64.61;96139.75;2103492;27;20566;-60
2022/06/22 09:13:15;;;;;;;132.98;40.47;;;;;;;21.53;64.62;96143.59;2083579;28;20587;-60
2022/06/22 09:14:41;;;;;;;133.57;36.10;;;;;;;21.62;64.80;96141.91;2082113;28;20387;-61
2022/06/22 09:16:22;;;;;;;126.38;28.85;;;;;;;21.33;65.21;96149.97;2084408;28;20196;-61
2022/06/22 09:17:46;;;;;;;126.60;25.40;;;;;;;21.42;64.52;96149.13;2073579;28;20290;-61
2022/06/22 09:18:53;;;;;;;132.02;44.13;;;;;;;21.42;64.25;96149.13;2090749;28;20203;-58
2022/06/22 09:20:06;;;;;;;127.75;37.38;;;;;;;21.47;64.53;96146.84;2078016;28;20204;-58
2022/06/22 09:21:34;;;;;;;134.40;53.42;;;;;;;21.78;63.45;96145.72;2081649;28;20544;-59
2022/06/22 09:22:41;;;;;;;151.68;66.07;;;;;;;21.85;63.41;96144.94;2076741;28;20229;-58
2022/06/22 09:24:09;;;;;;;131.93;45.10;;;;;;;21.68;63.83;96146.59;2089444;28;20223;-58
2022/06/22 09:25:41;;;;;;;142.63;59.67;;;;;;;21.56;64.10;96137.19;2078120;28;20216;-59
2022/06/22 09:27:01;;;;;;;143.85;64.35;;;;;;;21.84;63.62;96153.09;2077405;28;20208;-58
2022/06/22 09:28:10;;;;;;;143.80;65.65;;;;;;;21.99;63.14;96154.22;2079057;28;20848;-58
2022/06/22 09:29:39;;;;;;;141.05;59.53;;;;;;;22.27;62.25;96145.31;2079757;28;20205;-59
2022/06/22 09:53:24;;;;;;;125.38;19.83;;;;;;;22.43;63.96;96153.44;2097840;27;21139;-59
2022/06/22 09:56:46;;;;;;;136.73;49.65;;;;;;;22.60;62.70;96154.41;2093122;28;20208;-59
2022/06/22 09:58:05;;;;;;;131.98;48.40;;;;;;;22.48;63.81;96158.31;2091008;28;20218;-59
2022/06/22 09:59:17;;;;;;;143.45;58.63;;;;;;;22.26;63.87;96160.44;2101332;28;20195;-62
2022/06/22 10:00:33;;;;;;;150.85;63.30;;;;;;;22.45;63.59;96169.28;2094135;28;20202;-59
2022/06/22 10:02:06;;;;;;;146.07;69.75;;;;;;;22.39;63.71;96165.38;2092320;28;20199;-59
2022/06/22 10:03:39;;;;;;;148.10;68.03;;;;;;;22.45;63.85;96167.44;2078423;28;20228;-60
2022/06/22 10:29:16;;;;;;;131.32;45.40;;;;;;;21.49;68.96;96189.19;2109589;27;20593;-61
2022/06/22 10:30:25;;;;;;;201.63;98.47;;;;;;;21.25;68.59;96141.94;2079814;28;20203;-61
2022/06/22 10:31:48;;;;;;;151.43;82.05;;;;;;;21.36;70.26;96197.50;2102959;28;20431;-61
2022/06/22 10:33:08;;;;;;;155.38;74.82;;;;;;;21.47;68.42;96196.44;2095711;28;20349;-62
2022/06/22 10:34:38;;;;;;;175.57;94.25;;;;;;;21.57;68.67;96197.25;2095198;28;20188;-61
2022/06/22 10:35:49;;;;;;;144.20;60.55;;;;;;;21.69;68.01;96189.94;2084910;28;20207;-62
2022/06/22 10:37:11;;;;;;;143.38;67.00;;;;;;;21.61;68.82;96195.16;2094441;28;20222;-61
2022/06/22 10:58:29;;;;;;;136.88;52.47;;;;;;;20.13;70.63;96202.59;2109188;27;20587;-60
2022/06/22 10:59:33;;;;;;;142.60;64.40;;;;;;;19.95;71.71;96213.03;2103581;28;20230;-60
2022/06/22 11:01:07;;;;;;;174.13;98.68;;;;;;;19.87;72.36;96212.88;2103243;28;20210;-60
2022/06/22 11:02:44;;;;;;;157.80;79.50;;;;;;;19.92;72.47;96213.28;2091224;28;20274;-60
2022/06/22 11:04:23;;;;;;;165.65;94.97;;;;;;;20.06;72.55;96212.06;2093916;28;20223;-61
2022/06/22 11:22:48;;;;;;;174.15;101.65;;;;;;;20.16;73.87;96235.94;2079632;27;20535;-61
2022/06/22 11:24:08;;;;;;;179.60;105.70;;;;;;;20.24;73.51;96236.09;2095442;28;20202;-62
2022/06/22 11:31:32;;;;;;;151.20;78.43;;;;;;;20.56;71.77;96246.41;2084949;28;20712;-61
2022/06/22 11:33:12;;;;;;;148.88;75.07;;;;;;;20.76;71.67;96248.22;2084476;28;20760;-61
2022/06/22 11:53:57;;;;;;;156.82;86.30;;;;;;;21.01;71.91;96231.72;2109229;27;20545;-62
2022/06/22 11:55:20;;;;;;;158.25;79.43;;;;;;;21.03;72.08;96226.25;2103051;28;20202;-63
2022/06/22 11:56:44;;;;;;;161.73;91.90;;;;;;;20.93;71.01;96228.94;2103424;28;20217;-63
2022/06/22 11:58:04;;;;;;;159.73;87.95;;;;;;;21.07;71.98;96229.47;2086199;28;20693;-63
2022/06/22 11:59:11;;;;;;;147.07;69.40;;;;;;;21.04;71.36;96223.44;2094220;28;20578;-63
2022/06/22 12:00:40;;;;;;;160.55;69.55;;;;;;;20.83;72.35;96220.16;2087015;28;20196;-63
2022/06/22 12:02:00;;;;;;;146.80;63.17;;;;;;;21.04;72.13;96212.00;2086105;28;20628;-64
2022/06/22 12:20:06;;;;;;;183.38;124.78;;;;;;;20.83;72.48;96202.41;2100926;27;20569;-64
2022/06/22 12:21:34;;;;;;;161.10;91.72;;;;;;;21.08;71.22;96196.59;2094746;28;20207;-63
2022/06/22 12:22:53;;;;;;;148.15;61.95;;;;;;;21.15;70.65;96192.41;2082978;28;20207;-64
2022/06/22 12:24:16;;;;;;;144.60;64.82;;;;;;;21.16;71.67;96186.94;2094427;28;20678;-64
2022/06/22 12:25:36;;;;;;;128.43;44.55;;;;;;;21.20;70.38;96190.16;2078813;28;20189;-64
2022/06/22 12:27:09;;;;;;;125.80;34.65;;;;;;;21.26;70.74;96188.75;2078493;28;20201;-64
2022/06/22 12:28:32;;;;;;;114.20;16.33;;;;;;;21.44;69.73;96181.66;2086270;28;20215;-62
2022/06/22 12:29:54;;;;;;;119.22;19.10;;;;;;;21.37;70.11;96181.41;2086957;28;20204;-62
2022/06/22 12:31:11;;;;;;;148.10;66.65;;;;;;;21.28;72.15;96184.97;2087045;28;20211;-62
2022/06/22 12:32:33;;;;;;;111.50;14.98;;;;;;;21.61;70.13;96182.72;2082274;28;20762;-62
2022/06/22 12:34:14;;;;;;;114.22;16.75;;;;;;;21.73;68.93;96177.22;2102529;28;20199;-62
2022/06/22 12:35:39;;;;;;;112.90;15.57;;;;;;;21.46;70.64;96157.63;2087005;28;20223;-62
2022/06/22 12:36:49;;;;;;;123.15;18.65;;;;;;;21.43;68.50;96163.22;2086771;28;20557;-62
2022/06/22 12:38:03;;;;;;;118.13;15.25;;;;;;;21.76;68.98;96169.75;2091836;28;20305;-62
2022/06/22 12:39:26;;;;;;;115.75;14.50;;;;;;;21.69;68.87;96169.53;2101005;28;20206;-62
2022/06/22 12:40:52;;;;;;;113.40;16.00;;;;;;;21.85;68.11;96173.31;2086721;28;20211;-62
2022/06/22 13:07:48;;;;;;;225.43;113.10;;;;;;;22.32;70.32;96148.34;2086009;27;20572;-63
2022/06/22 13:08:51;;;;;;;143.05;38.22;;;;;;;22.35;70.13;96140.06;2094335;28;20270;-64
2022/06/22 13:09:56;;;;;;;115.30;13.13;;;;;;;22.18;68.76;96136.41;2082224;28;20196;-63
2022/06/22 13:11:04;;;;;;;115.03;12.13;;;;;;;22.00;69.26;96128.47;2081556;28;20197;-63
2022/06/22 13:12:21;;;;;;;116.25;14.10;;;;;;;21.88;68.60;96141.16;2074067;28;20201;-63
2022/06/22 13:13:31;;;;;;;119.80;19.88;;;;;;;21.70;68.48;96143.81;2096696;28;20210;-63
2022/06/22 13:14:54;;;;;;;108.13;16.42;;;;;;;21.95;68.29;96130.75;2087953;28;20197;-64
2022/06/22 13:16:13;;;;;;;115.63;18.63;;;;;;;22.09;68.87;96132.84;2083437;28;20823;-62
2022/06/22 13:17:40;;;;;;;119.10;14.75;;;;;;;22.19;69.70;96119.47;2076148;28;20565;-61
2022/06/22 13:34:20;;;;;;;184.40;120.43;;;;;;;21.54;72.60;96120.50;2084332;28;20561;-61
2022/06/22 13:35:43;;;;;;;161.93;86.97;;;;;;;21.59;72.20;96134.22;2077943;28;20200;-61
2022/06/22 13:37:15;;;;;;;142.38;52.45;;;;;;;22.05;70.49;96131.50;2078758;28;20242;-62
2022/06/22 13:38:32;;;;;;;120.15;17.77;;;;;;;22.11;69.25;96130.06;2069315;28;20716;-62
2022/06/22 13:40:00;;;;;;;151.18;56.53;;;;;;;21.78;71.54;96132.41;2070352;28;20755;-62
2022/06/22 13:41:25;;;;;;;141.02;61.47;;;;;;;21.78;71.93;96137.75;2068481;28;20217;-61
2022/06/22 13:42:51;;;;;;;118.32;22.88;;;;;;;22.21;70.35;96138.78;2050376;28;20288;-61
2022/06/22 13:44:14;;;;;;;113.10;22.02;;;;;;;22.20;70.00;96130.97;2077304;28;20197;-62
2022/06/22 13:45:37;;;;;;;118.72;18.23;;;;;;;22.22;70.01;96127.16;2070535;28;20204;-61
2022/06/22 13:47:02;;;;;;;120.90;24.88;;;;;;;22.00;70.25;96131.97;2070501;28;20715;-61
2022/06/22 13:48:32;;;;;;;121.97;25.63;;;;;;;21.91;72.30;96118.75;2069939;28;20228;-62
2022/06/22 13:50:24;;;;;;;109.45;19.90;;;;;;;22.07;71.68;96118.91;2070631;28;20208;-62
2022/06/22 13:51:54;;;;;;;138.32;49.15;;;;;;;22.18;71.56;96117.81;2070347;28;20197;-61
2022/06/22 13:53:04;;;;;;;121.65;27.50;;;;;;;21.93;71.53;96111.44;2059939;28;20221;-62
2022/06/22 13:54:40;;;;;;;134.55;43.17;;;;;;;21.98;71.39;96120.66;2069162;28;20636;-62
2022/06/22 13:56:02;;;;;;;135.85;49.05;;;;;;;22.40;67.85;96091.75;2062226;28;20232;-62
2022/06/22 13:57:07;;;;;;;151.43;40.28;;;;;;;22.77;65.44;96115.44;2061516;28;20669;-62
2022/06/22 13:58:23;;;;;;;113.05;22.45;;;;;;;23.04;65.45;96124.22;2061965;28;20202;-62
2022/06/22 13:59:51;;;;;;;160.05;90.88;;;;;;;23.03;65.26;96124.38;2061130;28;20205;-62
2022/06/22 14:01:18;;;;;;;160.85;110.50;;;;;;;23.27;64.28;96119.22;2061730;28;20729;-63
2022/06/22 14:02:38;;;;;;;145.70;54.88;;;;;;;23.02;65.37;96117.38;2054292;28;20269;-62
2022/06/22 14:03:53;;;;;;;145.32;63.03;;;;;;;23.55;63.23;96115.44;2069416;28;20231;-62
2022/06/22 14:05:01;;;;;;;173.32;133.57;;;;;;;23.67;62.01;96105.31;2062081;28;20555;-63
2022/06/22 14:06:26;;;;;;;176.68;124.78;;;;;;;23.80;62.25;96127.00;2062453;28;20289;-62
2022/06/22 14:07:37;;;;;;;167.13;119.28;;;;;;;23.71;62.13;96112.00;2055718;28;20225;-62
2022/06/22 14:08:48;;;;;;;173.18;123.30;;;;;;;23.70;62.16;96124.47;2069460;28;20202;-62
2022/06/22 14:09:59;;;;;;;213.73;180.40;;;;;;;23.67;60.93;96115.97;2063697;28;20673;-63
2022/06/22 14:11:25;;;;;;;181.38;147.40;;;;;;;23.23;62.47;96119.69;2062065;28;20203;-62
2022/06/22 14:12:37;;;;;;;184.32;155.35;;;;;;;23.36;61.13;96108.56;2055075;28;20759;-62
2022/06/22 14:13:55;;;;;;;195.40;162.45;;;;;;;23.45;61.79;96097.78;2069562;28;20272;-62
2022/06/22 14:15:05;;;;;;;162.13;112.00;;;;;;;23.76;62.29;96115.81;2062396;28;20202;-62
2022/06/22 14:16:09;;;;;;;170.68;100.65;;;;;;;23.81;64.60;96113.50;2060868;28;20199;-62
2022/06/22 14:17:22;;;;;;;172.55;125.88;;;;;;;23.71;65.57;96098.69;2061758;28;20548;-62
2022/06/22 14:39:11;;;;;;;145.07;64.32;;;;;;;23.40;66.36;96101.91;2084296;28;20549;-61
2022/06/22 14:40:39;;;;;;;150.65;64.55;;;;;;;23.57;66.29;96105.47;2048546;28;20206;-62
2022/06/22 14:41:55;;;;;;;176.95;138.20;;;;;;;23.54;66.23;96103.13;2082532;28;20771;-62
2022/06/22 14:43:08;;;;;;;174.30;127.22;;;;;;;23.51;66.01;96109.59;2079042;28;20232;-62
2022/06/22 15:21:08;;;;;;;160.50;91.35;;;;;;;21.53;75.96;96111.72;2083265;28;20764;-63
2022/06/22 15:22:28;;;;;;;179.30;88.05;;;;;;;21.35;76.94;96116.16;2068247;28;20221;-63
2022/06/22 15:24:10;;;;;;;175.48;110.20;;;;;;;21.47;77.71;96120.28;2077889;28;20212;-63
2022/06/22 15:25:21;;;;;;;171.15;105.50;;;;;;;21.56;77.45;96115.09;2069929;28;20306;-62
2022/06/22 15:26:45;;;;;;;158.55;90.20;;;;;;;21.53;77.30;96113.53;2070552;28;20205;-61
2022/06/22 15:28:03;;;;;;;166.85;103.25;;;;;;;21.63;77.61;96116.16;2069959;28;20228;-61
2022/06/22 15:41:54;;;;;;;171.40;107.82;;;;;;;22.49;73.18;96114.75;2082566;27;1257769;-60
2022/06/22 15:43:14;;;;;;;148.70;81.00;;;;;;;22.47;72.79;96111.41;2087847;28;20262;-60
2022/06/22 15:44:24;;;;;;;143.15;82.53;;;;;;;22.47;71.68;96114.06;2099846;28;20198;-61
2022/06/22 15:46:00;;;;;;;112.10;25.70;;;;;;;22.43;70.85;96113.53;2098234;28;20195;-61
2022/06/22 15:47:07;;;;;;;118.00;18.95;;;;;;;22.61;69.53;96110.88;2088401;28;20192;-61
2022/06/22 15:48:18;;;;;;;113.85;13.73;;;;;;;22.67;69.19;96107.53;2104786;28;20693;-61
2022/06/22 15:49:26;;;;;;;117.80;17.45;;;;;;;22.79;69.46;96115.25;2105017;28;20195;-61
2022/06/22 16:07:00;;;;;;;107.72;9.40;;;;;;;22.13;68.42;96090.84;2111283;27;20531;-58
2022/06/22 16:08:10;;;;;;;106.50;9.73;;;;;;;22.67;66.70;96104.88;2083046;28;20260;-59
2022/06/22 16:09:16;;;;;;;112.07;9.60;;;;;;;23.20;65.26;96102.19;2082525;28;20203;-59
2022/06/22 16:10:27;;;;;;;127.38;33.30;;;;;;;23.39;63.63;96097.56;2082898;28;20201;-59
2022/06/22 16:13:31;;;;;;;160.75;99.97;;;;;;;23.28;63.16;96094.22;2091627;28;20234;-61
2022/06/22 16:14:39;;;;;;;160.00;108.43;;;;;;;23.40;62.41;96101.91;2092543;28;20527;-60
2022/06/22 16:15:54;;;;;;;191.18;165.68;;;;;;;23.43;61.46;96099.75;2093834;28;20203;-61
2022/06/22 16:16:58;;;;;;;180.82;147.15;;;;;;;23.34;61.43;96103.41;2093336;28;20196;-61
2022/06/22 16:18:35;;;;;;;172.55;134.32;;;;;;;23.23;64.23;96107.19;2079200;28;20588;-61
2022/06/22 16:19:51;;;;;;;150.13;94.32;;;;;;;23.15;64.14;96088.53;2087919;28;20200;-61
2022/06/22 16:37:36;;;;;;;148.48;84.85;;;;;;;22.86;63.53;96108.31;2104734;27;20942;-62
2022/06/22 16:38:55;;;;;;;158.18;97.15;;;;;;;22.38;63.24;96025.41;2110851;28;20204;-62
2022/06/22 16:40:23;;;;;;;163.13;110.30;;;;;;;22.96;62.75;96109.03;2103135;28;20201;-60
2022/06/22 16:59:39;;;;;;;110.05;13.77;;;;;;;22.34;70.01;96080.72;2091827;27;20580;-61
2022/06/22 17:00:56;;;;;;;114.60;11.75;;;;;;;22.32;70.46;96089.84;2092314;28;20194;-62
2022/06/22 17:20:25;;;;;;;137.75;23.65;;;;;;;21.12;74.05;96102.47;2116316;27;21060;-59
2022/06/22 17:21:38;;;;;;;119.05;25.13;;;;;;;21.39;73.48;96093.63;2115129;28;20642;-60
2022/06/22 17:35:38;;;;;;;130.55;38.08;;;;;;;21.68;72.42;96098.78;2101584;27;20893;-61
2022/06/22 17:48:33;;;;;;;142.20;54.33;;;;;;;21.49;73.72;96077.63;2092096;27;20588;-60
2022/06/22 18:03:03;;;;;;;149.90;61.28;;;;;;;21.20;74.15;96084.81;2074640;28;20563;-60
2022/06/22 18:18:34;;;;;;;154.45;67.38;;;;;;;20.87;75.25;96144.59;2075906;27;21082;-60
